createdAt,value
2023-01-18T00:00:21.780Z,98209.39
2023-01-18T00:02:49.273Z,98209.92
2023-01-18T00:05:16.234Z,98208.25
2023-01-18T00:07:43.018Z,98204.73
2023-01-18T00:10:10.229Z,98214.23
2023-01-18T00:12:36.967Z,98223.14
2023-01-18T00:15:04.744Z,98222.97
2023-01-18T00:17:31.461Z,98224.99
2023-01-18T00:19:58.197Z,98222.51
2023-01-18T00:22:24.907Z,98221.72
2023-01-18T00:24:51.596Z,98219.07
2023-01-18T00:27:18.329Z,98225.73
2023-01-18T00:29:45.138Z,98218.59
2023-01-18T00:32:14.275Z,98213.46
2023-01-18T00:34:41.761Z,98218.48
2023-01-18T00:37:08.461Z,98199.16
2023-01-18T00:39:35.154Z,98197.45
2023-01-18T00:42:20.427Z,98196.73
2023-01-18T00:44:47.170Z,98195.09
2023-01-18T00:47:13.958Z,98204.09
2023-01-18T00:49:40.780Z,98195.70
2023-01-18T00:52:07.670Z,98190.77
2023-01-18T00:54:34.459Z,98194.05
2023-01-18T00:57:01.250Z,98193.98
2023-01-18T00:59:28.053Z,98191.31
2023-01-18T01:01:56.469Z,98191.86
2023-01-18T01:04:42.199Z,98181.21
2023-01-18T01:07:09.019Z,98174.63
2023-01-18T01:09:35.851Z,98182.73
2023-01-18T01:12:21.062Z,98172.08
2023-01-18T01:15:06.383Z,98176.20
2023-01-18T01:17:53.839Z,98168.88
2023-01-18T01:20:39.706Z,98165.10
2023-01-18T01:23:33.279Z,98176.42
2023-01-18T01:26:03.444Z,98171.89
2023-01-18T01:28:30.751Z,98176.00
2023-01-18T01:31:01.106Z,98178.56
2023-01-18T01:33:28.776Z,98179.63
2023-01-18T01:35:59.191Z,98164.04
2023-01-18T01:38:25.971Z,98168.50
2023-01-18T01:40:58.173Z,98147.37
2023-01-18T01:43:56.933Z,98134.79
2023-01-18T01:46:49.157Z,98135.77
2023-01-18T01:49:43.210Z,98137.98
2023-01-18T01:52:15.379Z,98150.23
2023-01-18T01:54:46.696Z,98145.08
2023-01-18T01:58:07.709Z,98142.05
2023-01-18T02:00:37.127Z,98152.55
2023-01-18T02:03:08.686Z,98141.45
2023-01-18T02:05:43.670Z,98153.70
2023-01-18T02:08:14.062Z,98149.16
2023-01-18T02:10:43.717Z,98150.95
2023-01-18T02:13:13.707Z,98138.44
2023-01-18T02:16:14.721Z,98133.98
2023-01-18T02:19:00.705Z,98125.38
2023-01-18T02:21:35.719Z,98129.18
2023-01-18T02:24:46.359Z,98119.95
2023-01-18T02:27:28.723Z,98118.98
2023-01-18T02:30:29.714Z,98122.89
2023-01-18T02:33:04.577Z,98104.51
2023-01-18T02:35:49.714Z,98101.66
2023-01-18T02:38:27.673Z,98101.15
2023-01-18T02:48:34.354Z,98085.59
2023-01-18T02:51:01.065Z,98078.45
2023-01-18T02:53:27.860Z,98070.83
2023-01-18T02:56:01.664Z,98076.91
2023-01-18T02:58:32.338Z,98080.17
2023-01-18T03:01:17.353Z,98085.84
2023-01-18T03:03:44.721Z,98092.63
2023-01-18T03:06:11.434Z,98093.52
2023-01-18T03:08:44.366Z,98079.70
2023-01-18T03:11:35.452Z,98086.06
2023-01-18T03:14:35.318Z,98081.41
2023-01-18T03:17:11.113Z,98092.81
2023-01-18T03:20:05.470Z,98096.23
2023-01-18T03:22:55.509Z,98102.56
2023-01-18T03:25:29.361Z,98096.78
2023-01-18T03:28:15.986Z,98088.06
2023-01-18T03:31:01.545Z,98083.73
2023-01-18T03:33:43.801Z,98089.09
2023-01-18T03:36:25.744Z,98092.17
2023-01-18T03:38:58.824Z,98083.10
2023-01-18T03:41:27.639Z,98079.52
2023-01-18T03:43:55.248Z,98070.27
2023-01-18T03:46:22.464Z,98082.20
2023-01-18T03:48:49.333Z,98067.27
2023-01-18T03:51:47.476Z,98072.75
2023-01-18T03:54:26.894Z,98068.34
2023-01-18T03:57:08.798Z,98065.86
2023-01-18T03:59:36.837Z,98065.99
2023-01-18T04:02:04.881Z,98065.33
2023-01-18T04:04:31.651Z,98065.42
2023-01-18T04:06:58.382Z,98050.98
2023-01-18T04:09:25.980Z,98056.91
2023-01-18T04:11:53.182Z,98051.35
2023-01-18T04:14:20.179Z,98066.56
2023-01-18T04:16:46.961Z,98072.29
2023-01-18T04:19:13.772Z,98079.39
2023-01-18T04:21:40.487Z,98077.39
2023-01-18T04:24:07.882Z,98068.91
2023-01-18T04:26:34.586Z,98063.27
2023-01-18T04:29:01.536Z,98058.63
2023-01-18T04:31:28.422Z,98061.06
2023-01-18T04:33:55.188Z,98056.45
2023-01-18T04:36:22.497Z,98059.34
2023-01-18T04:38:54.138Z,98055.04
2023-01-18T04:41:21.354Z,98053.58
2023-01-18T04:43:48.034Z,98046.11
2023-01-18T04:46:15.530Z,98048.34
2023-01-18T04:48:42.855Z,98055.85
2023-01-18T04:51:13.920Z,98059.33
2023-01-18T04:53:42.000Z,98063.08
2023-01-18T04:56:08.788Z,98068.90
2023-01-18T04:58:35.494Z,98056.73
2023-01-18T05:01:03.685Z,98042.02
2023-01-18T05:03:30.525Z,98037.00
2023-01-18T05:05:57.495Z,98039.42
2023-01-18T05:08:24.229Z,98045.58
2023-01-18T05:10:51.125Z,98048.69
2023-01-18T05:13:17.841Z,98049.25
2023-01-18T05:15:44.510Z,98039.34
2023-01-18T05:18:11.230Z,98037.48
2023-01-18T05:20:38.004Z,98032.98
2023-01-18T05:23:10.838Z,98027.06
2023-01-18T05:25:39.275Z,98028.95
2023-01-18T05:28:07.540Z,98017.95
2023-01-18T05:30:38.026Z,98020.89
2023-01-18T05:33:04.978Z,98022.25
2023-01-18T05:35:32.245Z,98005.61
2023-01-18T05:37:58.935Z,98013.55
2023-01-18T05:40:25.626Z,98011.73
2023-01-18T05:42:52.316Z,97998.80
2023-01-18T05:45:20.048Z,97998.13
2023-01-18T05:47:46.849Z,98000.98
2023-01-18T05:50:13.555Z,97999.58
2023-01-18T05:52:40.261Z,97990.42
2023-01-18T05:55:07.881Z,97987.45
2023-01-18T05:57:34.573Z,97990.88
2023-01-18T06:00:03.220Z,97975.36
2023-01-18T06:02:38.222Z,97970.54
2023-01-18T06:05:05.636Z,97971.33
2023-01-18T06:07:32.519Z,97969.16
2023-01-18T06:09:59.314Z,97976.77
2023-01-18T06:12:26.021Z,97979.67
2023-01-18T06:14:52.689Z,97984.02
2023-01-18T06:17:19.420Z,97972.77
2023-01-18T06:19:48.193Z,97972.61
2023-01-18T06:22:16.019Z,97980.64
2023-01-18T06:24:42.794Z,97981.86
2023-01-18T06:27:09.717Z,97977.91
2023-01-18T06:29:36.509Z,97969.56
2023-01-18T06:32:03.248Z,97969.34
2023-01-18T06:34:30.469Z,97966.85
2023-01-18T06:36:57.342Z,97973.47
2023-01-18T06:39:24.099Z,97970.13
2023-01-18T06:41:50.819Z,97970.48
2023-01-18T06:44:17.683Z,97970.52
2023-01-18T06:46:44.839Z,97969.85
2023-01-18T06:49:12.309Z,97962.56
2023-01-18T06:51:39.429Z,97961.41
2023-01-18T06:54:06.420Z,97959.20
2023-01-18T06:56:33.112Z,97955.54
2023-01-18T06:59:01.208Z,97962.52
2023-01-18T07:01:28.073Z,97954.40
2023-01-18T07:03:55.101Z,97953.45
2023-01-18T07:06:21.782Z,97961.48
2023-01-18T07:08:49.177Z,97949.48
2023-01-18T07:11:15.945Z,97942.08
2023-01-18T07:13:43.858Z,97944.66
2023-01-18T07:16:18.176Z,97940.44
2023-01-18T07:18:46.947Z,97942.17
2023-01-18T07:21:15.271Z,97943.20
2023-01-18T07:23:42.696Z,97945.61
2023-01-18T07:26:17.403Z,97951.04
2023-01-18T07:28:44.812Z,97964.34
2023-01-18T07:31:11.501Z,97950.45
2023-01-18T07:33:38.299Z,97950.68
2023-01-18T07:36:06.491Z,97946.29
2023-01-18T07:38:33.754Z,97947.84
2023-01-18T07:41:10.815Z,97951.40
2023-01-18T07:43:37.849Z,97947.70
2023-01-18T07:46:05.684Z,97948.54
2023-01-18T07:48:32.804Z,97936.87
2023-01-18T07:51:04.397Z,97937.67
2023-01-18T07:53:32.274Z,97937.55
2023-01-18T07:56:02.903Z,97927.63
2023-01-18T07:58:29.847Z,97926.42
2023-01-18T08:01:02.709Z,97921.63
2023-01-18T08:03:29.484Z,97921.42
2023-01-18T08:05:58.924Z,97906.60
2023-01-18T08:08:27.694Z,97910.19
2023-01-18T08:10:58.580Z,97918.69
2023-01-18T08:13:25.732Z,97926.45
2023-01-18T08:15:52.794Z,97936.70
2023-01-18T08:18:19.700Z,97948.33
2023-01-18T08:20:47.309Z,97938.63
2023-01-18T08:23:14.122Z,97945.63
2023-01-18T08:25:41.024Z,97948.23
2023-01-18T08:28:07.802Z,97947.67
2023-01-18T08:30:39.647Z,97938.06
2023-01-18T08:33:06.438Z,97937.19
2023-01-18T08:35:35.908Z,97939.20
2023-01-18T08:38:02.717Z,97924.46
2023-01-18T08:40:29.440Z,97944.52
2023-01-18T08:43:00.363Z,97931.04
2023-01-18T08:45:27.401Z,97938.65
2023-01-18T08:48:02.381Z,97935.64
2023-01-18T08:50:32.152Z,97915.77
2023-01-18T08:53:00.442Z,97915.68
2023-01-18T08:55:29.686Z,97902.18
2023-01-18T08:57:57.789Z,97914.85
2023-01-18T09:00:27.018Z,97906.83
2023-01-18T09:02:54.005Z,97891.23
2023-01-18T09:05:21.119Z,97875.00
2023-01-18T09:07:48.006Z,97869.96
2023-01-18T09:10:15.033Z,97875.36
2023-01-18T09:12:41.833Z,97864.23
2023-01-18T09:15:08.818Z,97866.19
2023-01-18T09:17:35.619Z,97857.84
2023-01-18T09:20:03.231Z,97858.56
2023-01-18T09:22:29.970Z,97874.06
2023-01-18T09:24:57.649Z,97873.68
2023-01-18T09:27:24.439Z,97876.56
2023-01-18T09:29:52.443Z,97896.04
2023-01-18T09:32:20.084Z,97895.25
2023-01-18T09:34:50.917Z,97871.60
2023-01-18T09:37:19.184Z,97873.08
2023-01-18T09:39:51.984Z,97883.72
2023-01-18T09:42:21.997Z,97890.55
2023-01-18T09:44:53.381Z,97889.70
2023-01-18T09:47:22.069Z,97879.37
2023-01-18T09:49:59.678Z,97886.69
2023-01-18T09:52:32.499Z,97881.55
2023-01-18T09:55:17.597Z,97870.24
2023-01-18T09:58:01.015Z,97878.46
2023-01-18T10:00:29.735Z,97870.52
2023-01-18T10:03:04.661Z,97867.95
2023-01-18T10:05:33.457Z,97886.39
2023-01-18T10:08:15.412Z,97867.95
2023-01-18T10:11:02.456Z,97872.20
2023-01-18T10:13:38.223Z,97869.30
2023-01-18T10:16:10.247Z,97872.85
2023-01-18T10:18:45.825Z,97868.46
2023-01-18T10:21:18.900Z,97878.95
2023-01-18T10:23:48.732Z,97864.79
2023-01-18T10:26:20.448Z,97862.88
2023-01-18T10:29:16.825Z,97862.17
2023-01-18T10:32:03.224Z,97867.50
2023-01-18T10:34:32.861Z,97855.33
2023-01-18T10:37:18.526Z,97862.89
2023-01-18T10:39:51.107Z,97872.02
2023-01-18T10:42:22.993Z,97867.78
2023-01-18T10:44:49.905Z,97860.67
2023-01-18T10:47:17.855Z,97862.47
2023-01-18T10:49:45.755Z,97857.19
2023-01-18T10:52:29.786Z,97852.38
2023-01-18T10:55:01.872Z,97845.71
2023-01-18T10:57:37.293Z,97852.17
2023-01-18T11:00:12.621Z,97844.61
2023-01-18T11:02:39.623Z,97843.34
2023-01-18T11:05:07.027Z,97849.91
2023-01-18T11:07:34.124Z,97848.02
2023-01-18T11:10:06.668Z,97844.72
2023-01-18T11:12:41.408Z,97850.98
2023-01-18T11:15:14.439Z,97845.90
2023-01-18T11:17:42.675Z,97844.48
2023-01-18T11:20:21.896Z,97834.02
2023-01-18T11:22:56.132Z,97833.05
2023-01-18T11:25:22.983Z,97845.20
2023-01-18T11:27:49.716Z,97853.44
2023-01-18T11:30:23.354Z,97843.22
2023-01-18T11:32:51.190Z,97834.67
2023-01-18T11:35:23.222Z,97829.77
2023-01-18T11:37:50.015Z,97827.66
2023-01-18T11:40:20.615Z,97825.11
2023-01-18T11:42:48.133Z,97830.39
2023-01-18T11:45:16.285Z,97827.52
2023-01-18T11:48:14.950Z,97836.83
2023-01-18T11:50:45.547Z,97823.13
2023-01-18T11:53:36.146Z,97845.85
2023-01-18T11:56:33.752Z,97835.91
2023-01-18T11:59:02.022Z,97842.91
2023-01-18T12:02:06.762Z,97830.34
2023-01-18T12:04:33.613Z,97835.48
2023-01-18T12:07:45.896Z,97824.40
2023-01-18T12:10:21.945Z,97854.12
2023-01-18T12:13:27.781Z,97835.61
2023-01-18T12:16:01.179Z,97846.58
2023-01-18T12:18:42.639Z,97848.70
2023-01-18T12:21:32.365Z,97844.36
2023-01-18T12:24:18.033Z,97849.11
2023-01-18T12:26:50.078Z,97849.36
2023-01-18T12:37:02.519Z,97857.16
2023-01-18T12:39:53.180Z,97850.08
2023-01-18T12:42:26.014Z,97859.18
2023-01-18T12:45:04.427Z,97850.09
2023-01-18T12:48:07.986Z,97861.19
2023-01-18T12:50:36.783Z,97867.78
2023-01-18T12:53:10.639Z,97875.23
2023-01-18T12:55:37.243Z,97878.80
2023-01-18T12:58:04.206Z,97867.05
2023-01-18T13:00:39.168Z,97851.98
2023-01-18T13:03:16.866Z,97858.82
2023-01-18T13:06:00.376Z,97857.54
2023-01-18T13:08:36.217Z,97864.77
2023-01-18T13:11:17.372Z,97868.35
2023-01-18T13:13:45.115Z,97868.14
2023-01-18T13:16:18.893Z,97857.50
2023-01-18T13:18:51.952Z,97865.09
2023-01-18T13:21:28.734Z,97854.22
2023-01-18T13:24:00.096Z,97851.98
2023-01-18T13:26:30.586Z,97856.06
2023-01-18T13:29:10.320Z,97863.38
2023-01-18T13:31:37.583Z,97853.71
2023-01-18T13:34:04.589Z,97865.83
2023-01-18T13:36:45.051Z,97880.95
2023-01-18T13:39:14.931Z,97878.48
2023-01-18T13:42:04.632Z,97889.23
2023-01-18T13:44:45.978Z,97880.79
2023-01-18T13:47:39.673Z,97879.19
2023-01-18T13:50:25.253Z,97878.59
2023-01-18T13:53:13.739Z,97882.55
2023-01-18T13:55:40.729Z,97891.86
2023-01-18T13:58:30.124Z,97886.05
2023-01-18T14:00:59.014Z,97884.91
2023-01-18T14:03:27.541Z,97886.05
2023-01-18T14:05:54.386Z,97878.73
2023-01-18T14:08:23.169Z,97881.80
2023-01-18T14:10:53.010Z,97882.51
2023-01-18T14:13:45.438Z,97892.02
2023-01-18T14:16:16.690Z,97885.60
2023-01-18T14:19:00.957Z,97874.30
2023-01-18T14:21:31.907Z,97871.80
2023-01-18T14:24:37.343Z,97873.13
2023-01-18T14:27:04.902Z,97863.77
2023-01-18T14:29:47.858Z,97875.72
2023-01-18T14:32:21.764Z,97868.45
2023-01-18T14:35:23.964Z,97871.49
2023-01-18T14:37:53.349Z,97880.05
2023-01-18T14:40:22.947Z,97872.15
2023-01-18T14:42:57.031Z,97867.92
2023-01-18T14:45:29.134Z,97888.15
2023-01-18T14:48:17.469Z,97882.89
2023-01-18T14:50:46.119Z,97898.30
2023-01-18T14:53:16.750Z,97899.05
2023-01-18T14:55:43.696Z,97909.70
2023-01-18T14:58:17.674Z,97907.98
2023-01-18T15:00:47.819Z,97917.99
2023-01-18T15:03:27.565Z,97914.93
2023-01-18T15:06:12.489Z,97920.93
2023-01-18T15:08:40.038Z,97913.88
2023-01-18T15:11:07.115Z,97922.42
2023-01-18T15:13:38.127Z,97938.88
2023-01-18T15:16:05.147Z,97926.40
2023-01-18T15:18:32.228Z,97924.25
2023-01-18T15:21:00.811Z,97922.02
2023-01-18T15:23:27.578Z,97932.88
2023-01-18T15:25:54.562Z,97938.25
2023-01-18T15:28:24.269Z,97941.29
2023-01-18T15:38:27.036Z,97943.70
2023-01-18T15:41:05.845Z,97941.75
2023-01-18T15:43:42.605Z,97936.05
2023-01-18T15:46:12.154Z,97942.98
2023-01-18T15:48:59.220Z,97935.34
2023-01-18T15:51:45.042Z,97946.14
2023-01-18T15:54:19.432Z,97929.33
2023-01-18T15:56:46.145Z,97936.38
2023-01-18T15:59:17.120Z,97916.94
2023-01-18T16:01:46.477Z,97919.30
2023-01-18T16:04:13.691Z,97925.40
2023-01-18T16:06:40.408Z,97934.33
2023-01-18T16:09:12.479Z,97941.58
2023-01-18T16:11:47.665Z,97934.86
2023-01-18T16:14:27.913Z,97933.35
2023-01-18T16:16:55.857Z,97937.20
2023-01-18T16:19:34.874Z,97940.86
2023-01-18T16:22:06.099Z,97953.67
2023-01-18T16:25:01.351Z,97952.05
2023-01-18T16:27:30.453Z,97955.48
2023-01-18T16:30:03.138Z,97949.79
2023-01-18T16:32:37.042Z,97963.02
2023-01-18T16:35:13.719Z,97959.75
2023-01-18T16:37:47.064Z,97962.19
2023-01-18T16:40:18.802Z,97970.27
2023-01-18T16:43:02.130Z,97969.97
2023-01-18T16:45:29.658Z,97968.64
2023-01-18T16:47:56.481Z,97974.05
2023-01-18T16:50:23.698Z,97977.31
2023-01-18T16:52:50.402Z,97982.06
2023-01-18T16:55:18.101Z,97967.91
2023-01-18T16:57:45.071Z,97969.13
2023-01-18T17:00:12.579Z,97981.29
2023-01-18T17:02:39.616Z,97979.86
2023-01-18T17:05:07.114Z,97988.16
2023-01-18T17:07:33.910Z,97991.89
2023-01-18T17:10:02.431Z,98011.88
2023-01-18T17:12:29.142Z,98012.84
2023-01-18T17:14:56.067Z,98013.56
2023-01-18T17:17:22.828Z,98026.34
2023-01-18T17:19:51.718Z,98021.77
2023-01-18T17:22:18.448Z,98015.79
2023-01-18T17:24:46.758Z,98031.65
2023-01-18T17:27:15.012Z,98029.63
2023-01-18T17:29:41.716Z,98036.30
2023-01-18T17:32:09.567Z,98041.91
2023-01-18T17:34:36.325Z,98052.09
2023-01-18T17:37:03.632Z,98050.42
2023-01-18T17:39:42.660Z,98045.13
2023-01-18T17:42:25.897Z,98060.31
2023-01-18T17:45:03.043Z,98048.52
2023-01-18T17:47:30.685Z,98066.50
2023-01-18T17:49:57.454Z,98058.92
2023-01-18T17:52:24.780Z,98050.14
2023-01-18T17:54:51.463Z,98055.95
2023-01-18T17:57:18.507Z,98058.04
2023-01-18T17:59:45.263Z,98074.65
2023-01-18T18:02:12.056Z,98082.77
2023-01-18T18:04:38.978Z,98083.70
2023-01-18T18:07:05.655Z,98078.91
2023-01-18T18:09:32.658Z,98097.95
2023-01-18T18:11:59.556Z,98104.10
2023-01-18T18:14:26.359Z,98104.94
2023-01-18T18:16:53.086Z,98097.77
2023-01-18T18:19:19.982Z,98101.32
2023-01-18T18:21:46.860Z,98101.52
2023-01-18T18:24:13.778Z,98109.20
2023-01-18T18:26:40.757Z,98086.27
2023-01-18T18:29:07.969Z,98076.35
2023-01-18T18:31:34.955Z,98088.67
2023-01-18T18:34:01.863Z,98095.21
2023-01-18T18:36:28.822Z,98095.02
2023-01-18T18:38:55.652Z,98086.40
2023-01-18T18:41:22.359Z,98097.89
2023-01-18T18:43:49.250Z,98109.40
2023-01-18T18:46:16.054Z,98113.98
2023-01-18T18:48:43.154Z,98114.98
2023-01-18T18:51:09.981Z,98120.15
2023-01-18T18:53:39.704Z,98127.58
2023-01-18T18:56:10.202Z,98124.88
2023-01-18T18:58:38.242Z,98128.88
2023-01-18T19:01:05.796Z,98134.83
2023-01-18T19:03:33.202Z,98145.16
2023-01-18T19:06:00.455Z,98143.59
2023-01-18T19:08:27.403Z,98149.55
2023-01-18T19:10:54.127Z,98161.14
2023-01-18T19:13:21.191Z,98169.56
2023-01-18T19:15:48.625Z,98171.23
2023-01-18T19:18:15.628Z,98176.00
2023-01-18T19:20:42.434Z,98181.59
2023-01-18T19:23:09.592Z,98185.29
2023-01-18T19:25:39.813Z,98189.57
2023-01-18T19:28:06.733Z,98202.94
2023-01-18T19:30:33.730Z,98200.23
2023-01-18T19:33:00.823Z,98195.46
2023-01-18T19:35:27.899Z,98199.22
2023-01-18T19:37:54.831Z,98213.89
2023-01-18T19:40:22.205Z,98205.98
2023-01-18T19:42:54.991Z,98214.39
2023-01-18T19:45:29.067Z,98226.60
2023-01-18T19:47:58.799Z,98241.34
2023-01-18T19:50:26.496Z,98245.08
2023-01-18T19:52:53.223Z,98241.48
2023-01-18T19:55:21.839Z,98238.44
2023-01-18T19:57:49.499Z,98234.13
2023-01-18T20:00:16.996Z,98244.40
2023-01-18T20:02:44.255Z,98261.54
2023-01-18T20:05:11.177Z,98265.61
2023-01-18T20:07:39.296Z,98268.67
2023-01-18T20:10:07.266Z,98276.81
2023-01-18T20:12:34.336Z,98291.72
2023-01-18T20:15:01.486Z,98291.04
2023-01-18T20:17:28.407Z,98295.00
2023-01-18T20:19:55.149Z,98297.70
2023-01-18T20:22:22.616Z,98307.80
2023-01-18T20:24:49.372Z,98317.34
2023-01-18T20:27:17.354Z,98326.20
2023-01-18T20:29:44.719Z,98320.46
2023-01-18T20:32:16.948Z,98324.20
2023-01-18T20:34:46.542Z,98339.27
2023-01-18T20:37:13.482Z,98338.73
2023-01-18T20:39:40.443Z,98341.46
2023-01-18T20:42:07.314Z,98339.21
2023-01-18T20:44:34.462Z,98341.52
2023-01-18T20:47:01.662Z,98341.19
2023-01-18T20:49:43.512Z,98344.77
2023-01-18T20:52:10.225Z,98345.23
2023-01-18T20:54:37.856Z,98357.14
2023-01-18T20:57:05.674Z,98354.60
2023-01-18T20:59:32.597Z,98359.72
2023-01-18T21:01:59.471Z,98354.87
2023-01-18T21:04:26.266Z,98353.77
2023-01-18T21:06:52.966Z,98354.22
2023-01-18T21:09:19.754Z,98352.11
2023-01-18T21:11:46.450Z,98351.04
2023-01-18T21:14:13.266Z,98349.73
2023-01-18T21:16:40.423Z,98356.23
2023-01-18T21:19:07.267Z,98359.64
2023-01-18T21:21:34.056Z,98361.35
2023-01-18T21:24:01.080Z,98363.73
2023-01-18T21:26:27.860Z,98370.45
2023-01-18T21:28:54.857Z,98370.02
2023-01-18T21:31:21.845Z,98383.44
2023-01-18T21:33:49.175Z,98387.85
2023-01-18T21:36:20.317Z,98389.89
2023-01-18T21:38:47.087Z,98398.40
2023-01-18T21:41:52.403Z,98403.06
2023-01-18T21:44:37.681Z,98396.91
2023-01-18T21:47:04.505Z,98401.25
2023-01-18T21:52:56.130Z,98411.74
2023-01-18T21:55:23.125Z,98413.04
2023-01-18T21:58:09.884Z,98418.16
2023-01-18T22:00:40.531Z,98420.21
2023-01-18T22:03:07.390Z,98421.93
2023-01-18T22:05:34.174Z,98426.11
2023-01-18T22:08:01.187Z,98423.14
2023-01-18T22:10:28.192Z,98430.96
2023-01-18T22:12:54.963Z,98435.27
2023-01-18T22:15:23.111Z,98436.98
2023-01-18T22:17:49.817Z,98437.90
2023-01-18T22:20:16.882Z,98444.64
2023-01-18T22:22:43.588Z,98454.75
2023-01-18T22:25:10.387Z,98466.40
2023-01-18T22:27:37.186Z,98465.98
2023-01-18T22:30:04.806Z,98465.44
2023-01-18T22:32:31.505Z,98465.77
2023-01-18T22:34:58.279Z,98464.27
2023-01-18T22:37:26.027Z,98468.52
2023-01-18T22:39:52.877Z,98473.25
2023-01-18T22:42:19.560Z,98480.02
2023-01-18T22:44:46.225Z,98488.09
2023-01-18T22:47:12.906Z,98496.88
2023-01-18T22:49:39.615Z,98503.17
2023-01-18T22:52:06.806Z,98499.99
2023-01-18T22:54:33.506Z,98497.05
2023-01-18T22:57:00.205Z,98496.73
2023-01-18T22:59:26.909Z,98493.02
2023-01-18T23:01:53.603Z,98491.05
2023-01-18T23:04:20.610Z,98487.02
2023-01-18T23:06:48.182Z,98485.20
2023-01-18T23:09:15.844Z,98486.20
2023-01-18T23:11:42.656Z,98497.27
2023-01-18T23:14:28.174Z,98503.17
2023-01-18T23:17:13.643Z,98512.11
2023-01-18T23:19:40.336Z,98510.64
2023-01-18T23:22:07.417Z,98518.91
2023-01-18T23:24:36.002Z,98532.77
2023-01-18T23:27:04.051Z,98538.36
2023-01-18T23:29:30.805Z,98551.20
2023-01-18T23:31:58.450Z,98554.65
2023-01-18T23:34:25.732Z,98561.75
2023-01-18T23:36:53.060Z,98569.41
2023-01-18T23:39:38.595Z,98577.27
2023-01-18T23:42:24.264Z,98577.52
2023-01-18T23:45:10.370Z,98574.20
2023-01-18T23:47:55.875Z,98585.02
2023-01-18T23:50:41.472Z,98588.12
2023-01-18T23:53:30.766Z,98586.85
2023-01-18T23:55:57.972Z,98586.53
2023-01-18T23:58:24.889Z,98588.36
